sensor_id;sensor_type;location;lat;lon;timestamp;P1;durP1;ratioP1;P2;durP2;ratioP2
1829;SDS011;914;48.118;11.600;2022-11-15T00:00:04;4.47;;;4.07;;
1829;SDS011;914;48.118;11.600;2022-11-15T00:02:33;3.80;;;3.50;;
1829;SDS011;914;48.118;11.600;2022-11-15T00:04:59;5.63;;;3.93;;
1829;SDS011;914;48.118;11.600;2022-11-15T00:07:24;3.93;;;3.53;;
1829;SDS011;914;48.118;11.600;2022-11-15T00:09:50;4.00;;;3.60;;
1829;SDS011;914;48.118;11.600;2022-11-15T00:12:16;4.93;;;3.47;;
1829;SDS011;914;48.118;11.600;2022-11-15T00:14:41;4.23;;;3.27;;
1829;SDS011;914;48.118;11.600;2022-11-15T00:17:09;3.67;;;3.20;;
1829;SDS011;914;48.118;11.600;2022-11-15T00:19:35;4.53;;;4.10;;
1829;SDS011;914;48.118;11.600;2022-11-15T00:22:01;5.13;;;3.90;;
1829;SDS011;914;48.118;11.600;2022-11-15T00:24:26;5.53;;;4.60;;
1829;SDS011;914;48.118;11.600;2022-11-15T00:26:52;4.67;;;3.83;;
1829;SDS011;914;48.118;11.600;2022-11-15T00:29:18;4.07;;;3.50;;
1829;SDS011;914;48.118;11.600;2022-11-15T00:31:43;3.80;;;3.33;;
1829;SDS011;914;48.118;11.600;2022-11-15T00:34:09;4.43;;;3.33;;
1829;SDS011;914;48.118;11.600;2022-11-15T00:36:35;3.87;;;3.37;;
1829;SDS011;914;48.118;11.600;2022-11-15T00:39:03;4.77;;;3.40;;
1829;SDS011;914;48.118;11.600;2022-11-15T00:41:30;3.87;;;3.40;;
1829;SDS011;914;48.118;11.600;2022-11-15T00:43:56;5.37;;;3.73;;
1829;SDS011;914;48.118;11.600;2022-11-15T00:46:25;3.83;;;3.53;;
1829;SDS011;914;48.118;11.600;2022-11-15T00:48:51;4.27;;;3.40;;
1829;SDS011;914;48.118;11.600;2022-11-15T00:51:17;3.63;;;3.27;;
1829;SDS011;914;48.118;11.600;2022-11-15T00:53:42;4.83;;;3.80;;
1829;SDS011;914;48.118;11.600;2022-11-15T00:56:08;3.50;;;3.13;;
1829;SDS011;914;48.118;11.600;2022-11-15T00:58:33;4.67;;;3.40;;
1829;SDS011;914;48.118;11.600;2022-11-15T01:01:09;4.03;;;3.13;;
1829;SDS011;914;48.118;11.600;2022-11-15T01:03:37;4.77;;;3.63;;
1829;SDS011;914;48.118;11.600;2022-11-15T01:06:04;4.73;;;3.50;;
1829;SDS011;914;48.118;11.600;2022-11-15T01:08:30;3.87;;;3.33;;
1829;SDS011;914;48.118;11.600;2022-11-15T01:11:06;3.70;;;3.30;;
1829;SDS011;914;48.118;11.600;2022-11-15T01:13:34;3.50;;;3.20;;
1829;SDS011;914;48.118;11.600;2022-11-15T01:16:12;3.33;;;3.03;;
1829;SDS011;914;48.118;11.600;2022-11-15T01:18:43;3.23;;;2.93;;
1829;SDS011;914;48.118;11.600;2022-11-15T01:21:10;3.40;;;3.10;;
1829;SDS011;914;48.118;11.600;2022-11-15T01:23:39;3.03;;;2.80;;
1829;SDS011;914;48.118;11.600;2022-11-15T01:26:05;2.80;;;2.60;;
1829;SDS011;914;48.118;11.600;2022-11-15T01:28:36;3.33;;;2.70;;
1829;SDS011;914;48.118;11.600;2022-11-15T01:31:04;3.50;;;3.20;;
1829;SDS011;914;48.118;11.600;2022-11-15T01:33:33;2.87;;;2.67;;
1829;SDS011;914;48.118;11.600;2022-11-15T01:36:03;3.17;;;2.87;;
1829;SDS011;914;48.118;11.600;2022-11-15T01:38:33;3.07;;;2.77;;
1829;SDS011;914;48.118;11.600;2022-11-15T01:40:59;3.70;;;3.00;;
1829;SDS011;914;48.118;11.600;2022-11-15T01:43:26;3.67;;;3.03;;
1829;SDS011;914;48.118;11.600;2022-11-15T01:45:58;4.63;;;3.07;;
1829;SDS011;914;48.118;11.600;2022-11-15T01:48:44;3.43;;;2.93;;
1829;SDS011;914;48.118;11.600;2022-11-15T01:51:10;4.10;;;3.10;;
1829;SDS011;914;48.118;11.600;2022-11-15T01:53:39;5.60;;;3.07;;
1829;SDS011;914;48.118;11.600;2022-11-15T01:56:08;2.70;;;2.50;;
1829;SDS011;914;48.118;11.600;2022-11-15T01:58:37;2.63;;;2.43;;
1829;SDS011;914;48.118;11.600;2022-11-15T02:01:04;3.13;;;2.83;;
1829;SDS011;914;48.118;11.600;2022-11-15T02:03:34;3.20;;;2.90;;
1829;SDS011;914;48.118;11.600;2022-11-15T02:06:09;3.40;;;2.80;;
1829;SDS011;914;48.118;11.600;2022-11-15T02:08:35;3.33;;;3.03;;
1829;SDS011;914;48.118;11.600;2022-11-15T02:11:00;4.03;;;3.17;;
1829;SDS011;914;48.118;11.600;2022-11-15T02:13:29;3.27;;;2.67;;
1829;SDS011;914;48.118;11.600;2022-11-15T02:18:44;2.70;;;2.50;;
1829;SDS011;914;48.118;11.600;2022-11-15T02:27:08;2.87;;;2.57;;
1829;SDS011;914;48.118;11.600;2022-11-15T02:30:00;2.57;;;2.37;;
1829;SDS011;914;48.118;11.600;2022-11-15T02:32:44;3.77;;;2.53;;
1829;SDS011;914;48.118;11.600;2022-11-15T02:40:51;2.40;;;2.20;;
1829;SDS011;914;48.118;11.600;2022-11-15T02:43:29;4.03;;;2.33;;
1829;SDS011;914;48.118;11.600;2022-11-15T02:49:21;2.37;;;2.17;;
1829;SDS011;914;48.118;11.600;2022-11-15T02:51:50;3.10;;;2.20;;
1829;SDS011;914;48.118;11.600;2022-11-15T02:54:20;2.63;;;2.43;;
1829;SDS011;914;48.118;11.600;2022-11-15T02:56:58;2.37;;;2.17;;
1829;SDS011;914;48.118;11.600;2022-11-15T03:02:20;2.80;;;2.50;;
1829;SDS011;914;48.118;11.600;2022-11-15T03:04:53;2.40;;;2.20;;
1829;SDS011;914;48.118;11.600;2022-11-15T03:07:33;2.50;;;2.30;;
1829;SDS011;914;48.118;11.600;2022-11-15T03:10:25;2.83;;;2.33;;
1829;SDS011;914;48.118;11.600;2022-11-15T03:12:59;2.60;;;2.37;;
1829;SDS011;914;48.118;11.600;2022-11-15T03:15:31;2.40;;;2.20;;
1829;SDS011;914;48.118;11.600;2022-11-15T03:21:04;2.77;;;2.57;;
1829;SDS011;914;48.118;11.600;2022-11-15T03:23:32;3.10;;;2.20;;
1829;SDS011;914;48.118;11.600;2022-11-15T03:26:03;2.60;;;2.40;;
1829;SDS011;914;48.118;11.600;2022-11-15T03:28:45;2.57;;;2.37;;
1829;SDS011;914;48.118;11.600;2022-11-15T03:31:18;2.60;;;2.37;;
1829;SDS011;914;48.118;11.600;2022-11-15T03:34:05;3.30;;;2.57;;
1829;SDS011;914;48.118;11.600;2022-11-15T03:36:37;4.27;;;2.50;;
1829;SDS011;914;48.118;11.600;2022-11-15T03:39:05;2.77;;;2.40;;
1829;SDS011;914;48.118;11.600;2022-11-15T03:41:44;2.47;;;2.27;;
1829;SDS011;914;48.118;11.600;2022-11-15T03:47:03;2.27;;;2.10;;
1829;SDS011;914;48.118;11.600;2022-11-15T03:49:46;2.70;;;2.27;;
1829;SDS011;914;48.118;11.600;2022-11-15T03:52:17;3.33;;;2.63;;
1829;SDS011;914;48.118;11.600;2022-11-15T03:54:49;2.70;;;2.50;;
1829;SDS011;914;48.118;11.600;2022-11-15T03:57:16;2.50;;;2.30;;
1829;SDS011;914;48.118;11.600;2022-11-15T03:59:45;5.07;;;2.57;;
1829;SDS011;914;48.118;11.600;2022-11-15T04:02:11;2.50;;;2.30;;
1829;SDS011;914;48.118;11.600;2022-11-15T04:04:38;3.03;;;2.77;;
1829;SDS011;914;48.118;11.600;2022-11-15T04:07:04;2.90;;;2.60;;
1829;SDS011;914;48.118;11.600;2022-11-15T04:09:30;4.07;;;3.00;;
1829;SDS011;914;48.118;11.600;2022-11-15T04:11:56;2.77;;;2.50;;
1829;SDS011;914;48.118;11.600;2022-11-15T04:14:22;2.57;;;2.37;;
1829;SDS011;914;48.118;11.600;2022-11-15T04:16:47;2.97;;;2.60;;
1829;SDS011;914;48.118;11.600;2022-11-15T04:19:13;2.47;;;2.27;;
1829;SDS011;914;48.118;11.600;2022-11-15T04:21:57;2.67;;;2.47;;
1829;SDS011;914;48.118;11.600;2022-11-15T04:24:41;3.10;;;2.63;;
1829;SDS011;914;48.118;11.600;2022-11-15T04:27:07;2.37;;;2.17;;
1829;SDS011;914;48.118;11.600;2022-11-15T04:29:33;3.10;;;2.80;;
1829;SDS011;914;48.118;11.600;2022-11-15T04:32:05;3.03;;;2.73;;
1829;SDS011;914;48.118;11.600;2022-11-15T04:34:32;2.60;;;2.27;;
1829;SDS011;914;48.118;11.600;2022-11-15T04:36:58;2.60;;;2.30;;
1829;SDS011;914;48.118;11.600;2022-11-15T04:39:41;2.57;;;2.37;;
1829;SDS011;914;48.118;11.600;2022-11-15T04:42:07;3.27;;;2.60;;
1829;SDS011;914;48.118;11.600;2022-11-15T04:44:33;3.60;;;2.70;;
1829;SDS011;914;48.118;11.600;2022-11-15T04:46:59;5.10;;;2.83;;
1829;SDS011;914;48.118;11.600;2022-11-15T04:49:25;3.00;;;2.53;;
1829;SDS011;914;48.118;11.600;2022-11-15T04:51:54;3.03;;;2.73;;
1829;SDS011;914;48.118;11.600;2022-11-15T04:54:20;2.83;;;2.40;;
1829;SDS011;914;48.118;11.600;2022-11-15T04:56:45;4.40;;;3.20;;
1829;SDS011;914;48.118;11.600;2022-11-15T04:59:11;3.23;;;2.40;;
1829;SDS011;914;48.118;11.600;2022-11-15T05:01:39;3.27;;;2.50;;
1829;SDS011;914;48.118;11.600;2022-11-15T05:04:08;3.67;;;2.83;;
1829;SDS011;914;48.118;11.600;2022-11-15T05:06:46;7.20;;;4.87;;
1829;SDS011;914;48.118;11.600;2022-11-15T05:09:13;3.57;;;3.10;;
1829;SDS011;914;48.118;11.600;2022-11-15T05:11:39;3.70;;;3.07;;
1829;SDS011;914;48.118;11.600;2022-11-15T05:14:04;3.13;;;2.83;;
1829;SDS011;914;48.118;11.600;2022-11-15T05:16:32;3.07;;;2.77;;
1829;SDS011;914;48.118;11.600;2022-11-15T05:19:01;3.50;;;3.10;;
1829;SDS011;914;48.118;11.600;2022-11-15T05:21:27;2.90;;;2.70;;
1829;SDS011;914;48.118;11.600;2022-11-15T05:23:52;4.03;;;2.27;;
1829;SDS011;914;48.118;11.600;2022-11-15T05:26:18;4.17;;;2.23;;
1829;SDS011;914;48.118;11.600;2022-11-15T05:28:51;2.53;;;2.30;;
1829;SDS011;914;48.118;11.600;2022-11-15T05:31:18;2.57;;;2.23;;
1829;SDS011;914;48.118;11.600;2022-11-15T05:33:46;2.40;;;2.10;;
1829;SDS011;914;48.118;11.600;2022-11-15T05:39:07;3.20;;;2.43;;
1829;SDS011;914;48.118;11.600;2022-11-15T05:41:40;2.40;;;2.20;;
1829;SDS011;914;48.118;11.600;2022-11-15T05:44:16;2.23;;;2.03;;
1829;SDS011;914;48.118;11.600;2022-11-15T05:46:44;2.50;;;2.30;;
1829;SDS011;914;48.118;11.600;2022-11-15T05:49:11;2.73;;;2.43;;
1829;SDS011;914;48.118;11.600;2022-11-15T05:51:41;2.10;;;2.00;;
1829;SDS011;914;48.118;11.600;2022-11-15T05:54:09;3.03;;;2.17;;
1829;SDS011;914;48.118;11.600;2022-11-15T05:56:35;3.47;;;2.17;;
1829;SDS011;914;48.118;11.600;2022-11-15T05:59:01;2.07;;;1.80;;
1829;SDS011;914;48.118;11.600;2022-11-15T06:01:28;2.30;;;2.10;;
1829;SDS011;914;48.118;11.600;2022-11-15T06:03:53;2.40;;;2.20;;
1829;SDS011;914;48.118;11.600;2022-11-15T06:06:19;2.33;;;2.17;;
1829;SDS011;914;48.118;11.600;2022-11-15T06:08:48;2.70;;;2.37;;
1829;SDS011;914;48.118;11.600;2022-11-15T06:11:13;2.60;;;2.40;;
1829;SDS011;914;48.118;11.600;2022-11-15T06:13:39;2.73;;;2.43;;
1829;SDS011;914;48.118;11.600;2022-11-15T06:16:07;2.70;;;2.50;;
1829;SDS011;914;48.118;11.600;2022-11-15T06:18:33;2.50;;;2.30;;
1829;SDS011;914;48.118;11.600;2022-11-15T06:21:00;4.40;;;2.80;;
1829;SDS011;914;48.118;11.600;2022-11-15T06:23:26;3.50;;;2.80;;
1829;SDS011;914;48.118;11.600;2022-11-15T06:26:02;4.73;;;2.53;;
1829;SDS011;914;48.118;11.600;2022-11-15T06:28:29;2.33;;;2.13;;
1829;SDS011;914;48.118;11.600;2022-11-15T06:30:56;2.77;;;2.57;;
1829;SDS011;914;48.118;11.600;2022-11-15T06:33:26;3.60;;;2.60;;
1829;SDS011;914;48.118;11.600;2022-11-15T06:35:52;4.00;;;2.67;;
1829;SDS011;914;48.118;11.600;2022-11-15T06:38:18;3.27;;;2.60;;
1829;SDS011;914;48.118;11.600;2022-11-15T06:40:44;2.83;;;2.27;;
1829;SDS011;914;48.118;11.600;2022-11-15T06:43:09;3.30;;;2.50;;
1829;SDS011;914;48.118;11.600;2022-11-15T06:45:35;5.17;;;2.27;;
1829;SDS011;914;48.118;11.600;2022-11-15T06:48:01;2.70;;;2.50;;
1829;SDS011;914;48.118;11.600;2022-11-15T06:50:26;5.70;;;2.63;;
1829;SDS011;914;48.118;11.600;2022-11-15T06:52:55;4.90;;;2.33;;
1829;SDS011;914;48.118;11.600;2022-11-15T06:55:26;2.30;;;2.10;;
1829;SDS011;914;48.118;11.600;2022-11-15T06:57:52;2.40;;;2.20;;
1829;SDS011;914;48.118;11.600;2022-11-15T07:00:19;2.43;;;2.23;;
1829;SDS011;914;48.118;11.600;2022-11-15T07:02:46;2.67;;;2.47;;
1829;SDS011;914;48.118;11.600;2022-11-15T07:05:12;2.53;;;2.20;;
1829;SDS011;914;48.118;11.600;2022-11-15T07:07:39;3.93;;;2.57;;
1829;SDS011;914;48.118;11.600;2022-11-15T07:10:05;3.30;;;2.20;;
1829;SDS011;914;48.118;11.600;2022-11-15T07:12:31;5.40;;;2.40;;
1829;SDS011;914;48.118;11.600;2022-11-15T07:14:57;3.53;;;2.37;;
1829;SDS011;914;48.118;11.600;2022-11-15T07:17:23;2.70;;;2.30;;
1829;SDS011;914;48.118;11.600;2022-11-15T07:19:48;3.73;;;2.40;;
1829;SDS011;914;48.118;11.600;2022-11-15T07:22:14;2.60;;;2.40;;
1829;SDS011;914;48.118;11.600;2022-11-15T07:24:40;2.43;;;2.20;;
1829;SDS011;914;48.118;11.600;2022-11-15T07:27:05;3.97;;;2.43;;
1829;SDS011;914;48.118;11.600;2022-11-15T07:29:32;2.50;;;2.20;;
1829;SDS011;914;48.118;11.600;2022-11-15T07:31:57;3.90;;;1.90;;
1829;SDS011;914;48.118;11.600;2022-11-15T07:34:27;3.27;;;2.60;;
1829;SDS011;914;48.118;11.600;2022-11-15T07:36:52;3.17;;;2.17;;
1829;SDS011;914;48.118;11.600;2022-11-15T07:39:18;7.00;;;3.10;;
1829;SDS011;914;48.118;11.600;2022-11-15T07:41:44;3.60;;;2.50;;
1829;SDS011;914;48.118;11.600;2022-11-15T07:44:09;6.43;;;2.80;;
1829;SDS011;914;48.118;11.600;2022-11-15T07:46:35;5.20;;;2.90;;
1829;SDS011;914;48.118;11.600;2022-11-15T07:49:01;4.03;;;2.80;;
1829;SDS011;914;48.118;11.600;2022-11-15T07:51:26;5.37;;;2.83;;
1829;SDS011;914;48.118;11.600;2022-11-15T07:53:55;4.57;;;2.70;;
1829;SDS011;914;48.118;11.600;2022-11-15T07:56:21;5.50;;;2.80;;
1829;SDS011;914;48.118;11.600;2022-11-15T07:58:47;2.83;;;2.50;;
1829;SDS011;914;48.118;11.600;2022-11-15T08:01:12;6.80;;;2.73;;
1829;SDS011;914;48.118;11.600;2022-11-15T08:03:38;4.63;;;2.60;;
1829;SDS011;914;48.118;11.600;2022-11-15T08:06:04;2.97;;;2.40;;
1829;SDS011;914;48.118;11.600;2022-11-15T08:08:30;3.20;;;2.43;;
1829;SDS011;914;48.118;11.600;2022-11-15T08:10:57;2.90;;;2.13;;
1829;SDS011;914;48.118;11.600;2022-11-15T08:13:23;2.73;;;2.40;;
1829;SDS011;914;48.118;11.600;2022-11-15T08:15:48;3.13;;;2.50;;
1829;SDS011;914;48.118;11.600;2022-11-15T08:18:14;5.10;;;2.87;;
1829;SDS011;914;48.118;11.600;2022-11-15T08:20:41;2.97;;;2.67;;
1829;SDS011;914;48.118;11.600;2022-11-15T08:23:08;6.57;;;2.57;;
1829;SDS011;914;48.118;11.600;2022-11-15T08:25:36;5.50;;;2.50;;
1829;SDS011;914;48.118;11.600;2022-11-15T08:28:04;4.90;;;3.10;;
1829;SDS011;914;48.118;11.600;2022-11-15T08:30:34;4.97;;;3.30;;
1829;SDS011;914;48.118;11.600;2022-11-15T08:33:03;9.90;;;4.10;;
1829;SDS011;914;48.118;11.600;2022-11-15T08:35:29;9.07;;;3.90;;
1829;SDS011;914;48.118;11.600;2022-11-15T08:37:54;5.03;;;3.20;;
1829;SDS011;914;48.118;11.600;2022-11-15T08:40:21;4.73;;;3.40;;
1829;SDS011;914;48.118;11.600;2022-11-15T08:42:47;7.67;;;3.57;;
1829;SDS011;914;48.118;11.600;2022-11-15T08:45:13;6.97;;;3.30;;
1829;SDS011;914;48.118;11.600;2022-11-15T08:47:39;6.50;;;3.40;;
1829;SDS011;914;48.118;11.600;2022-11-15T08:50:05;4.53;;;2.70;;
1829;SDS011;914;48.118;11.600;2022-11-15T08:52:31;6.07;;;3.33;;
1829;SDS011;914;48.118;11.600;2022-11-15T08:54:57;8.10;;;3.47;;
1829;SDS011;914;48.118;11.600;2022-11-15T08:57:23;8.23;;;2.80;;
1829;SDS011;914;48.118;11.600;2022-11-15T08:59:48;3.17;;;2.87;;
1829;SDS011;914;48.118;11.600;2022-11-15T09:02:14;5.50;;;3.47;;
1829;SDS011;914;48.118;11.600;2022-11-15T09:04:41;6.30;;;2.93;;
1829;SDS011;914;48.118;11.600;2022-11-15T09:07:07;3.40;;;2.80;;
1829;SDS011;914;48.118;11.600;2022-11-15T09:09:37;5.60;;;2.90;;
1829;SDS011;914;48.118;11.600;2022-11-15T09:12:03;3.67;;;2.60;;
1829;SDS011;914;48.118;11.600;2022-11-15T09:14:30;5.00;;;3.17;;
1829;SDS011;914;48.118;11.600;2022-11-15T09:16:55;5.83;;;2.77;;
1829;SDS011;914;48.118;11.600;2022-11-15T09:19:21;6.40;;;2.97;;
1829;SDS011;914;48.118;11.600;2022-11-15T09:21:47;3.73;;;2.50;;
1829;SDS011;914;48.118;11.600;2022-11-15T09:24:12;4.97;;;3.00;;
1829;SDS011;914;48.118;11.600;2022-11-15T09:26:38;5.17;;;2.93;;
1829;SDS011;914;48.118;11.600;2022-11-15T09:29:04;5.67;;;3.07;;
1829;SDS011;914;48.118;11.600;2022-11-15T09:31:30;8.03;;;3.00;;
1829;SDS011;914;48.118;11.600;2022-11-15T09:33:55;7.33;;;3.37;;
1829;SDS011;914;48.118;11.600;2022-11-15T09:36:21;4.43;;;2.70;;
1829;SDS011;914;48.118;11.600;2022-11-15T09:38:47;8.77;;;2.70;;
1829;SDS011;914;48.118;11.600;2022-11-15T09:43:51;5.27;;;2.67;;
1829;SDS011;914;48.118;11.600;2022-11-15T09:49:24;3.47;;;2.63;;
1829;SDS011;914;48.118;11.600;2022-11-15T09:51:51;3.27;;;2.40;;
1829;SDS011;914;48.118;11.600;2022-11-15T09:54:32;2.97;;;2.00;;
1829;SDS011;914;48.118;11.600;2022-11-15T09:57:11;2.23;;;1.93;;
1829;SDS011;914;48.118;11.600;2022-11-15T10:05:14;2.20;;;2.00;;
1829;SDS011;914;48.118;11.600;2022-11-15T10:07:46;5.27;;;2.20;;
1829;SDS011;914;48.118;11.600;2022-11-15T10:10:26;1.97;;;1.83;;
1829;SDS011;914;48.118;11.600;2022-11-15T10:12:56;3.40;;;2.10;;
1829;SDS011;914;48.118;11.600;2022-11-15T10:15:22;3.43;;;1.97;;
1829;SDS011;914;48.118;11.600;2022-11-15T10:21:22;1.50;;;1.40;;
1829;SDS011;914;48.118;11.600;2022-11-15T10:23:54;3.17;;;1.80;;
1829;SDS011;914;48.118;11.600;2022-11-15T10:26:19;1.67;;;1.50;;
1829;SDS011;914;48.118;11.600;2022-11-15T10:28:48;1.63;;;1.50;;
1829;SDS011;914;48.118;11.600;2022-11-15T10:31:22;1.70;;;1.60;;
1829;SDS011;914;48.118;11.600;2022-11-15T10:33:50;2.13;;;1.93;;
1829;SDS011;914;48.118;11.600;2022-11-15T10:36:20;3.27;;;2.30;;
1829;SDS011;914;48.118;11.600;2022-11-15T10:41:16;6.00;;;1.70;;
1829;SDS011;914;48.118;11.600;2022-11-15T10:44:03;1.50;;;1.40;;
1829;SDS011;914;48.118;11.600;2022-11-15T10:46:39;3.73;;;1.90;;
1829;SDS011;914;48.118;11.600;2022-11-15T10:49:11;3.07;;;1.60;;
1829;SDS011;914;48.118;11.600;2022-11-15T10:51:40;2.17;;;1.80;;
1829;SDS011;914;48.118;11.600;2022-11-15T10:54:10;1.63;;;1.53;;
1829;SDS011;914;48.118;11.600;2022-11-15T10:56:38;1.77;;;1.67;;
1829;SDS011;914;48.118;11.600;2022-11-15T10:59:12;1.73;;;1.53;;
1829;SDS011;914;48.118;11.600;2022-11-15T11:01:46;1.60;;;1.50;;
1829;SDS011;914;48.118;11.600;2022-11-15T11:04:13;2.10;;;1.60;;
1829;SDS011;914;48.118;11.600;2022-11-15T11:06:53;2.03;;;1.83;;
1829;SDS011;914;48.118;11.600;2022-11-15T11:09:33;2.43;;;1.80;;
1829;SDS011;914;48.118;11.600;2022-11-15T11:12:02;1.53;;;1.43;;
1829;SDS011;914;48.118;11.600;2022-11-15T11:14:30;3.73;;;1.50;;
1829;SDS011;914;48.118;11.600;2022-11-15T11:20:00;1.20;;;1.20;;
1829;SDS011;914;48.118;11.600;2022-11-15T11:31:25;1.33;;;1.23;;
1829;SDS011;914;48.118;11.600;2022-11-15T11:42:46;3.77;;;3.23;;
1829;SDS011;914;48.118;11.600;2022-11-15T11:50:38;4.50;;;1.97;;
1829;SDS011;914;48.118;11.600;2022-11-15T11:56:01;1.73;;;1.60;;
1829;SDS011;914;48.118;11.600;2022-11-15T11:58:37;1.40;;;1.30;;
1829;SDS011;914;48.118;11.600;2022-11-15T12:01:49;1.60;;;1.40;;
1829;SDS011;914;48.118;11.600;2022-11-15T12:04:03;1.33;;;1.23;;
1829;SDS011;914;48.118;11.600;2022-11-15T12:06:41;2.20;;;1.23;;
1829;SDS011;914;48.118;11.600;2022-11-15T12:17:04;2.53;;;1.40;;
1829;SDS011;914;48.118;11.600;2022-11-15T12:19:29;7.27;;;1.77;;
1829;SDS011;914;48.118;11.600;2022-11-15T12:24:41;3.80;;;1.40;;
1829;SDS011;914;48.118;11.600;2022-11-15T12:29:49;1.53;;;1.43;;
1829;SDS011;914;48.118;11.600;2022-11-15T12:32:33;1.40;;;1.30;;
1829;SDS011;914;48.118;11.600;2022-11-15T12:35:02;2.90;;;1.47;;
1829;SDS011;914;48.118;11.600;2022-11-15T12:42:57;1.50;;;1.40;;
1829;SDS011;914;48.118;11.600;2022-11-15T12:45:24;3.27;;;1.57;;
1829;SDS011;914;48.118;11.600;2022-11-15T12:47:52;3.80;;;1.67;;
1829;SDS011;914;48.118;11.600;2022-11-15T12:50:47;1.40;;;1.30;;
1829;SDS011;914;48.118;11.600;2022-11-15T12:56:08;1.63;;;1.40;;
1829;SDS011;914;48.118;11.600;2022-11-15T12:58:42;5.27;;;3.40;;
1829;SDS011;914;48.118;11.600;2022-11-15T13:07:02;1.70;;;1.60;;
1829;SDS011;914;48.118;11.600;2022-11-15T13:12:02;1.57;;;1.10;;
1829;SDS011;914;48.118;11.600;2022-11-15T13:14:42;2.17;;;1.77;;
1829;SDS011;914;48.118;11.600;2022-11-15T13:19:45;3.13;;;1.53;;
1829;SDS011;914;48.118;11.600;2022-11-15T13:22:13;2.63;;;1.47;;
1829;SDS011;914;48.118;11.600;2022-11-15T13:24:58;3.97;;;1.57;;
1829;SDS011;914;48.118;11.600;2022-11-15T13:27:26;1.67;;;1.50;;
1829;SDS011;914;48.118;11.600;2022-11-15T13:29:52;2.73;;;1.43;;
1829;SDS011;914;48.118;11.600;2022-11-15T13:32:18;2.00;;;1.80;;
1829;SDS011;914;48.118;11.600;2022-11-15T13:34:45;8.17;;;1.73;;
1829;SDS011;914;48.118;11.600;2022-11-15T13:39:48;2.47;;;1.53;;
1829;SDS011;914;48.118;11.600;2022-11-15T13:42:18;1.70;;;1.60;;
1829;SDS011;914;48.118;11.600;2022-11-15T13:44:55;2.00;;;1.70;;
1829;SDS011;914;48.118;11.600;2022-11-15T13:47:21;1.90;;;1.80;;
1829;SDS011;914;48.118;11.600;2022-11-15T13:49:49;1.50;;;1.40;;
1829;SDS011;914;48.118;11.600;2022-11-15T13:52:15;1.60;;;1.50;;
1829;SDS011;914;48.118;11.600;2022-11-15T13:54:43;3.70;;;1.50;;
1829;SDS011;914;48.118;11.600;2022-11-15T13:57:15;2.00;;;1.60;;
1829;SDS011;914;48.118;11.600;2022-11-15T13:59:57;1.83;;;1.50;;
1829;SDS011;914;48.118;11.600;2022-11-15T14:02:35;4.87;;;1.90;;
1829;SDS011;914;48.118;11.600;2022-11-15T14:07:30;3.53;;;1.60;;
1829;SDS011;914;48.118;11.600;2022-11-15T14:09:57;1.80;;;1.67;;
1829;SDS011;914;48.118;11.600;2022-11-15T14:12:50;2.30;;;1.60;;
1829;SDS011;914;48.118;11.600;2022-11-15T14:15:35;1.83;;;1.73;;
1829;SDS011;914;48.118;11.600;2022-11-15T14:18:04;3.57;;;1.80;;
1829;SDS011;914;48.118;11.600;2022-11-15T14:23:05;2.53;;;2.03;;
1829;SDS011;914;48.118;11.600;2022-11-15T14:25:54;3.70;;;1.80;;
1829;SDS011;914;48.118;11.600;2022-11-15T14:30:47;2.00;;;1.90;;
1829;SDS011;914;48.118;11.600;2022-11-15T14:33:19;8.00;;;6.67;;
1829;SDS011;914;48.118;11.600;2022-11-15T14:35:57;3.07;;;2.40;;
1829;SDS011;914;48.118;11.600;2022-11-15T14:38:24;4.00;;;1.80;;
1829;SDS011;914;48.118;11.600;2022-11-15T14:40:50;3.17;;;2.10;;
1829;SDS011;914;48.118;11.600;2022-11-15T14:43:16;2.53;;;2.10;;
1829;SDS011;914;48.118;11.600;2022-11-15T14:45:42;2.43;;;2.00;;
1829;SDS011;914;48.118;11.600;2022-11-15T14:48:08;2.93;;;1.90;;
1829;SDS011;914;48.118;11.600;2022-11-15T14:50:34;6.20;;;2.27;;
1829;SDS011;914;48.118;11.600;2022-11-15T14:53:00;1.70;;;1.60;;
1829;SDS011;914;48.118;11.600;2022-11-15T14:55:27;4.47;;;2.00;;
1829;SDS011;914;48.118;11.600;2022-11-15T14:57:56;2.07;;;1.83;;
1829;SDS011;914;48.118;11.600;2022-11-15T15:00:23;1.93;;;1.80;;
1829;SDS011;914;48.118;11.600;2022-11-15T15:02:50;2.23;;;1.80;;
1829;SDS011;914;48.118;11.600;2022-11-15T15:07:58;2.27;;;2.07;;
1829;SDS011;914;48.118;11.600;2022-11-15T15:10:25;2.00;;;1.80;;
1829;SDS011;914;48.118;11.600;2022-11-15T15:12:55;1.87;;;1.73;;
1829;SDS011;914;48.118;11.600;2022-11-15T15:15:24;1.97;;;1.87;;
1829;SDS011;914;48.118;11.600;2022-11-15T15:17:50;1.87;;;1.70;;
1829;SDS011;914;48.118;11.600;2022-11-15T15:20:16;3.57;;;1.80;;
1829;SDS011;914;48.118;11.600;2022-11-15T15:22:42;8.57;;;2.60;;
1829;SDS011;914;48.118;11.600;2022-11-15T15:25:14;3.17;;;2.50;;
1829;SDS011;914;48.118;11.600;2022-11-15T15:27:47;10.47;;;3.77;;
1829;SDS011;914;48.118;11.600;2022-11-15T15:30:13;8.57;;;3.40;;
1829;SDS011;914;48.118;11.600;2022-11-15T15:32:39;11.90;;;3.87;;
1829;SDS011;914;48.118;11.600;2022-11-15T15:35:05;7.67;;;3.70;;
1829;SDS011;914;48.118;11.600;2022-11-15T15:37:30;5.10;;;3.60;;
1829;SDS011;914;48.118;11.600;2022-11-15T15:39:58;9.57;;;4.00;;
1829;SDS011;914;48.118;11.600;2022-11-15T15:42:24;17.80;;;5.13;;
1829;SDS011;914;48.118;11.600;2022-11-15T15:44:50;10.37;;;4.00;;
1829;SDS011;914;48.118;11.600;2022-11-15T15:47:17;7.40;;;4.30;;
1829;SDS011;914;48.118;11.600;2022-11-15T15:49:45;10.63;;;3.97;;
1829;SDS011;914;48.118;11.600;2022-11-15T15:52:12;10.43;;;4.17;;
1829;SDS011;914;48.118;11.600;2022-11-15T15:54:38;13.30;;;4.80;;
1829;SDS011;914;48.118;11.600;2022-11-15T15:57:05;8.77;;;5.07;;
1829;SDS011;914;48.118;11.600;2022-11-15T15:59:31;23.33;;;10.23;;
1829;SDS011;914;48.118;11.600;2022-11-15T16:01:57;5.87;;;4.73;;
1829;SDS011;914;48.118;11.600;2022-11-15T16:04:23;14.27;;;5.73;;
1829;SDS011;914;48.118;11.600;2022-11-15T16:06:49;7.13;;;4.43;;
1829;SDS011;914;48.118;11.600;2022-11-15T16:09:18;5.43;;;4.23;;
1829;SDS011;914;48.118;11.600;2022-11-15T16:12:04;4.63;;;4.13;;
1829;SDS011;914;48.118;11.600;2022-11-15T16:14:31;6.27;;;4.83;;
1829;SDS011;914;48.118;11.600;2022-11-15T16:16:57;7.07;;;4.33;;
1829;SDS011;914;48.118;11.600;2022-11-15T16:19:23;6.73;;;4.30;;
1829;SDS011;914;48.118;11.600;2022-11-15T16:21:49;8.13;;;4.60;;
1829;SDS011;914;48.118;11.600;2022-11-15T16:24:17;8.13;;;4.63;;
1829;SDS011;914;48.118;11.600;2022-11-15T16:26:43;7.83;;;5.00;;
1829;SDS011;914;48.118;11.600;2022-11-15T16:29:10;7.20;;;5.13;;
1829;SDS011;914;48.118;11.600;2022-11-15T16:31:36;5.77;;;4.53;;
1829;SDS011;914;48.118;11.600;2022-11-15T16:34:02;6.27;;;4.37;;
1829;SDS011;914;48.118;11.600;2022-11-15T16:36:29;5.10;;;4.50;;
1829;SDS011;914;48.118;11.600;2022-11-15T16:38:57;7.87;;;4.43;;
1829;SDS011;914;48.118;11.600;2022-11-15T16:41:24;5.23;;;4.40;;
1829;SDS011;914;48.118;11.600;2022-11-15T16:43:50;4.80;;;4.40;;
1829;SDS011;914;48.118;11.600;2022-11-15T16:46:20;6.50;;;4.40;;
1829;SDS011;914;48.118;11.600;2022-11-15T16:48:47;7.43;;;4.67;;
1829;SDS011;914;48.118;11.600;2022-11-15T16:51:13;7.90;;;5.10;;
1829;SDS011;914;48.118;11.600;2022-11-15T16:53:40;12.83;;;5.43;;
1829;SDS011;914;48.118;11.600;2022-11-15T16:56:25;5.20;;;4.70;;
1829;SDS011;914;48.118;11.600;2022-11-15T16:58:53;5.83;;;4.80;;
1829;SDS011;914;48.118;11.600;2022-11-15T17:01:22;6.87;;;4.43;;
1829;SDS011;914;48.118;11.600;2022-11-15T17:03:49;5.30;;;4.80;;
1829;SDS011;914;48.118;11.600;2022-11-15T17:06:15;8.33;;;4.97;;
1829;SDS011;914;48.118;11.600;2022-11-15T17:08:43;7.83;;;5.17;;
1829;SDS011;914;48.118;11.600;2022-11-15T17:11:16;12.93;;;5.70;;
1829;SDS011;914;48.118;11.600;2022-11-15T17:13:44;11.57;;;5.27;;
1829;SDS011;914;48.118;11.600;2022-11-15T17:16:14;9.43;;;5.43;;
1829;SDS011;914;48.118;11.600;2022-11-15T17:18:42;16.63;;;6.57;;
1829;SDS011;914;48.118;11.600;2022-11-15T17:21:15;15.10;;;9.67;;
1829;SDS011;914;48.118;11.600;2022-11-15T17:23:42;10.43;;;6.63;;
1829;SDS011;914;48.118;11.600;2022-11-15T17:26:09;10.40;;;6.53;;